Time;durP1;ratioP1;P1;durP2;ratioP2;P2;SDS_P1;SDS_P2;PMS_P1;PMS_P2;Temp;Humidity;BMP_temperature;BMP_pressure;BME280_temperature;BME280_humidity;BME280_pressure;Samples;Min_cycle;Max_cycle;Signal;HPM_P1;HPM_P2
2023/07/18 00:01:20;;;;;;;2.97;2.50;;;29.30;55.80;;;;;;5114696;28;20449;-79
2023/07/18 00:03:46;;;;;;;3.55;3.08;;;29.30;55.80;;;;;;5114503;28;20047;-78
2023/07/18 00:06:12;;;;;;;4.40;3.10;;;29.30;55.80;;;;;;5114710;28;20080;-79
2023/07/18 00:08:40;;;;;;;3.20;2.80;;;29.30;55.80;;;;;;5114816;28;20050;-79
2023/07/18 00:11:06;;;;;;;4.60;3.10;;;29.30;55.90;;;;;;5113044;28;20686;-79
2023/07/18 00:13:32;;;;;;;5.93;3.03;;;29.30;55.90;;;;;;5114375;27;20062;-79
2023/07/18 00:15:58;;;;;;;5.35;3.28;;;29.20;55.90;;;;;;5114666;28;20063;-79
2023/07/18 00:18:24;;;;;;;4.78;3.63;;;29.30;55.80;;;;;;5114297;28;20057;-78
2023/07/18 00:20:50;;;;;;;3.33;2.95;;;29.40;55.90;;;;;;5114614;28;20134;-79
2023/07/18 00:23:15;;;;;;;2.80;2.60;;;29.20;55.90;;;;;;5113980;28;20031;-78
2023/07/18 00:25:41;;;;;;;5.68;2.70;;;29.40;56.00;;;;;;5114138;28;20035;-77
2023/07/18 00:28:09;;;;;;;9.02;3.47;;;29.30;55.90;;;;;;5113806;28;20112;-76
2023/07/18 00:30:35;;;;;;;5.07;3.20;;;29.20;55.80;;;;;;5113835;28;20035;-76
2023/07/18 00:33:01;;;;;;;3.80;2.70;;;29.30;55.90;;;;;;5112513;28;20392;-76
2023/07/18 00:35:27;;;;;;;4.43;3.05;;;29.30;55.70;;;;;;5114099;28;20238;-76
2023/07/18 00:37:53;;;;;;;4.43;2.80;;;29.30;55.60;;;;;;5112291;28;20158;-76
2023/07/18 00:40:19;;;;;;;2.80;2.60;;;29.30;55.80;;;;;;5113371;28;20062;-76
2023/07/18 00:42:49;;;;;;;4.47;3.10;;;29.20;55.80;;;;;;5112308;28;20063;-76
2023/07/18 00:45:15;;;;;;;7.05;2.92;;;29.10;55.90;;;;;;5113438;27;20122;-76
2023/07/18 00:47:44;;;;;;;3.17;2.65;;;29.30;55.40;;;;;;5113424;28;20039;-76
2023/07/18 00:50:14;;;;;;;3.00;2.38;;;29.20;55.30;;;;;;5131177;27;20051;-76
2023/07/18 00:52:52;;;;;;;5.57;3.35;;;29.20;55.40;;;;;;5113374;28;20063;-76
2023/07/18 00:55:18;;;;;;;4.95;3.63;;;29.20;55.40;;;;;;5113914;27;20102;-76
2023/07/18 00:57:46;;;;;;;7.45;3.10;;;29.20;55.80;;;;;;5114155;27;20130;-76
2023/07/18 01:00:13;;;;;;;7.28;2.85;;;29.20;55.20;;;;;;5131216;27;20452;-76
2023/07/18 01:02:41;;;;;;;3.25;2.38;;;29.30;55.10;;;;;;5131516;27;20056;-76
2023/07/18 01:05:09;;;;;;;6.60;2.95;;;29.10;54.10;;;;;;5113962;27;20134;-76
2023/07/18 01:07:37;;;;;;;7.47;2.65;;;29.10;55.50;;;;;;5130873;27;20035;-76
2023/07/18 01:10:24;;;;;;;3.05;2.65;;;29.20;55.70;;;;;;5113901;27;20070;-76
2023/07/18 01:12:55;;;;;;;4.18;2.90;;;29.30;55.60;;;;;;5079858;27;20363;-76
2023/07/18 01:15:25;;;;;;;3.78;2.45;;;29.00;55.80;;;;;;5069461;28;20392;-76
2023/07/18 01:17:51;;;;;;;4.43;2.78;;;29.10;56.10;;;;;;5052950;28;20044;-77
2023/07/18 01:20:21;;;;;;;4.43;2.90;;;29.20;56.10;;;;;;5053155;28;20045;-76
2023/07/18 01:22:49;;;;;;;2.53;2.33;;;28.90;55.40;;;;;;5069777;28;20072;-76
2023/07/18 01:25:19;;;;;;;3.05;2.70;;;29.10;56.10;;;;;;5069724;28;20127;-76
2023/07/18 01:27:50;;;;;;;4.30;2.38;;;29.00;56.30;;;;;;5052803;28;20075;-76
2023/07/18 01:30:20;;;;;;;4.68;3.15;;;29.00;56.30;;;;;;5052958;28;20147;-76
2023/07/18 01:32:49;;;;;;;5.82;2.80;;;29.10;56.10;;;;;;5036031;28;20426;-76
2023/07/18 01:35:17;;;;;;;2.70;2.28;;;29.10;56.30;;;;;;5069555;28;20047;-76
2023/07/18 01:37:46;;;;;;;2.90;2.60;;;29.00;56.40;;;;;;5069324;28;20508;-76
2023/07/18 01:40:15;;;;;;;3.05;2.38;;;29.10;56.40;;;;;;5052554;28;20068;-76
2023/07/18 01:42:42;;;;;;;3.13;2.65;;;29.10;56.50;;;;;;5052655;28;20488;-76
2023/07/18 01:45:10;;;;;;;3.03;2.30;;;29.10;56.50;;;;;;5052382;28;20389;-75
2023/07/18 01:47:39;;;;;;;4.90;2.90;;;29.20;56.50;;;;;;5112378;28;20030;-76
2023/07/18 01:50:06;;;;;;;7.55;2.92;;;29.10;56.50;;;;;;5112168;28;20036;-76
2023/07/18 01:52:33;;;;;;;5.57;2.50;;;29.10;56.50;;;;;;5110988;28;20028;-76
2023/07/18 01:55:01;;;;;;;3.50;2.88;;;29.20;56.60;;;;;;5111142;28;20023;-76
2023/07/18 01:57:52;;;;;;;10.45;3.03;;;29.20;56.60;;;;;;5112187;28;20028;-76
2023/07/18 02:00:19;;;;;;;5.45;3.28;;;29.20;56.60;;;;;;5110281;28;20039;-76
2023/07/18 02:02:48;;;;;;;4.10;2.97;;;29.20;56.60;;;;;;5110798;28;20051;-76
2023/07/18 02:05:16;;;;;;;3.13;2.63;;;29.20;56.60;;;;;;5110525;28;20046;-76
2023/07/18 02:07:42;;;;;;;2.58;2.22;;;29.20;56.60;;;;;;5110598;28;20095;-76
2023/07/18 02:10:08;;;;;;;5.35;2.70;;;29.30;56.60;;;;;;5111904;28;20036;-76
2023/07/18 02:12:34;;;;;;;2.65;2.40;;;29.20;56.60;;;;;;5110606;28;20028;-76
2023/07/18 02:15:01;;;;;;;2.80;2.42;;;29.20;56.60;;;;;;5077080;28;20037;-76
2023/07/18 02:17:27;;;;;;;4.10;3.15;;;29.30;56.60;;;;;;5112031;28;20039;-76
2023/07/18 02:19:53;;;;;;;4.55;3.05;;;29.30;56.50;;;;;;5111661;28;20034;-76
2023/07/18 02:22:21;;;;;;;3.38;2.90;;;29.20;56.50;;;;;;5112026;28;20141;-76
2023/07/18 02:24:48;;;;;;;5.30;3.78;;;29.30;56.50;;;;;;5110578;28;20027;-76
2023/07/18 02:27:14;;;;;;;2.83;2.53;;;29.40;56.50;;;;;;5110443;28;20039;-76
2023/07/18 02:29:40;;;;;;;4.20;2.72;;;29.20;56.50;;;;;;5111393;28;20504;-76
2023/07/18 02:32:07;;;;;;;3.47;3.03;;;29.30;56.40;;;;;;5112048;28;20031;-76
2023/07/18 02:34:33;;;;;;;2.50;2.30;;;29.40;56.40;;;;;;5111723;28;20024;-76
2023/07/18 02:36:59;;;;;;;4.10;2.70;;;29.30;56.30;;;;;;5111913;28;20399;-76
2023/07/18 02:39:30;;;;;;;3.28;2.33;;;29.20;56.40;;;;;;5111700;28;20053;-76
2023/07/18 02:41:56;;;;;;;2.47;2.28;;;29.30;56.30;;;;;;5110426;28;20032;-76
2023/07/18 02:44:22;;;;;;;4.10;2.15;;;29.30;56.30;;;;;;5110290;28;20098;-76
2023/07/18 02:46:48;;;;;;;2.92;2.60;;;29.40;56.30;;;;;;5110137;28;20388;-76
2023/07/18 02:49:14;;;;;;;3.10;2.80;;;29.30;56.20;;;;;;5110144;28;20036;-76
2023/07/18 02:51:40;;;;;;;3.38;2.95;;;29.40;56.20;;;;;;5110056;28;20560;-76
2023/07/18 02:54:06;;;;;;;2.38;2.17;;;29.30;56.20;;;;;;5110622;28;20433;-76
2023/07/18 02:56:32;;;;;;;3.05;2.78;;;29.40;56.10;;;;;;5110292;28;20093;-76
2023/07/18 02:58:58;;;;;;;3.13;2.70;;;29.30;56.00;;;;;;5111363;28;20032;-76
2023/07/18 03:01:24;;;;;;;4.88;3.13;;;29.40;56.00;;;;;;5111410;28;20039;-76
2023/07/18 03:03:50;;;;;;;5.13;2.95;;;29.40;55.90;;;;;;5111664;28;20036;-76
2023/07/18 03:06:16;;;;;;;3.90;2.97;;;29.40;55.90;;;;;;5076662;28;20065;-76
2023/07/18 03:08:42;;;;;;;3.45;2.97;;;29.40;55.80;;;;;;5110198;28;20040;-76
2023/07/18 03:11:09;;;;;;;4.72;3.50;;;29.40;55.80;;;;;;5110029;28;20084;-76
2023/07/18 03:13:36;;;;;;;4.88;3.72;;;29.30;55.70;;;;;;5109855;28;20558;-76
2023/07/18 03:16:04;;;;;;;4.60;4.15;;;29.20;55.70;;;;;;5111797;28;20027;-76
2023/07/18 03:18:31;;;;;;;5.63;4.30;;;29.40;55.70;;;;;;5097015;28;20039;-76
2023/07/18 03:20:57;;;;;;;5.47;3.90;;;29.40;55.60;;;;;;5113774;28;20035;-76
2023/07/18 03:23:24;;;;;;;5.55;3.75;;;29.40;55.70;;;;;;5113652;28;20616;-76
2023/07/18 03:25:51;;;;;;;6.47;4.20;;;29.50;55.70;;;;;;5115303;27;20027;-76
2023/07/18 03:28:17;;;;;;;6.03;3.90;;;29.40;55.70;;;;;;5113857;28;20097;-76
2023/07/18 03:30:43;;;;;;;6.45;5.28;;;29.40;55.70;;;;;;5114784;28;20035;-76
2023/07/18 03:33:09;;;;;;;4.38;3.97;;;29.40;55.70;;;;;;5113869;28;20384;-76
2023/07/18 03:35:35;;;;;;;7.00;4.05;;;29.40;55.70;;;;;;5114782;27;20059;-76
2023/07/18 03:38:01;;;;;;;8.95;4.43;;;29.30;55.70;;;;;;5112741;28;20466;-76
2023/07/18 03:40:27;;;;;;;5.78;4.40;;;29.40;55.70;;;;;;5113230;28;20036;-76
2023/07/18 03:42:53;;;;;;;7.35;3.72;;;29.30;55.70;;;;;;5114690;28;20054;-76
2023/07/18 03:45:20;;;;;;;4.53;3.92;;;29.40;55.80;;;;;;5115110;28;20391;-76
2023/07/18 03:47:46;;;;;;;5.40;4.10;;;29.30;55.80;;;;;;5114921;28;20031;-78
2023/07/18 03:50:14;;;;;;;7.25;4.55;;;29.40;55.80;;;;;;5114522;28;20039;-78
2023/07/18 03:52:40;;;;;;;7.43;4.50;;;29.40;55.60;;;;;;5114838;28;20479;-78
2023/07/18 03:55:07;;;;;;;6.72;5.50;;;29.40;55.50;;;;;;5113446;28;20115;-78
2023/07/18 03:57:34;;;;;;;10.52;5.20;;;29.30;55.40;;;;;;5114675;28;20043;-77
2023/07/18 04:00:00;;;;;;;7.65;6.20;;;29.30;55.50;;;;;;5096282;28;20403;-76
2023/07/18 04:02:26;;;;;;;8.05;4.93;;;29.20;55.40;;;;;;5113379;28;20036;-77
2023/07/18 04:04:52;;;;;;;7.53;5.32;;;29.30;55.60;;;;;;5112225;28;20496;-78
2023/07/18 04:07:20;;;;;;;8.75;4.88;;;29.30;55.70;;;;;;5114521;28;20068;-82
2023/07/18 04:09:46;;;;;;;7.90;5.40;;;29.30;55.70;;;;;;5113877;28;20092;-75
2023/07/18 04:12:15;;;;;;;6.50;5.70;;;29.40;56.20;;;;;;5114194;28;20036;-75
2023/07/18 04:14:42;;;;;;;11.70;6.70;;;29.80;60.50;;;;;;5114238;28;20399;-73
2023/07/18 04:17:08;;;;;;;8.43;5.68;;;30.30;63.80;;;;;;5114207;28;20483;-74
2023/07/18 04:19:35;;;;;;;7.22;6.20;;;30.40;64.00;;;;;;5113650;28;20514;-74
2023/07/18 04:22:02;;;;;;;7.38;5.88;;;30.20;58.70;;;;;;5113910;28;20372;-73
2023/07/18 04:24:29;;;;;;;7.05;6.15;;;30.20;58.40;;;;;;5096039;28;20199;-82
2023/07/18 04:26:55;;;;;;;8.73;5.95;;;30.10;58.50;;;;;;5112797;28;20061;-81
2023/07/18 04:29:21;;;;;;;6.45;5.68;;;30.00;58.30;;;;;;5112456;28;20128;-80
2023/07/18 04:31:47;;;;;;;8.05;6.10;;;29.80;57.80;;;;;;5114384;28;20031;-80
2023/07/18 04:34:15;;;;;;;10.20;6.53;;;29.80;58.10;;;;;;5095899;28;20111;-80
2023/07/18 04:36:42;;;;;;;7.72;6.22;;;29.80;57.80;;;;;;5095783;28;20039;-78
2023/07/18 04:39:09;;;;;;;8.32;5.80;;;29.90;57.90;;;;;;5112456;28;20035;-79
2023/07/18 04:41:35;;;;;;;7.38;5.75;;;29.70;58.00;;;;;;5114142;28;20090;-80
2023/07/18 04:44:03;;;;;;;7.45;5.63;;;29.90;58.20;;;;;;5112628;28;20434;-85
2023/07/18 04:46:29;;;;;;;6.30;5.70;;;29.80;58.40;;;;;;5112606;28;20122;-81
2023/07/18 04:48:55;;;;;;;8.15;6.05;;;29.80;58.60;;;;;;5113657;28;20027;-78
2023/07/18 04:51:24;;;;;;;7.28;5.85;;;29.50;58.90;;;;;;5114398;28;20540;-78
2023/07/18 04:53:50;;;;;;;8.32;6.15;;;29.60;58.20;;;;;;5114907;28;20042;-78
2023/07/18 04:56:16;;;;;;;9.73;6.53;;;29.70;57.30;;;;;;5114720;28;20027;-78
2023/07/18 04:58:43;;;;;;;8.15;6.18;;;29.60;56.70;;;;;;5115224;28;20072;-78
2023/07/18 05:01:12;;;;;;;12.95;7.05;;;29.60;56.80;;;;;;5113325;28;20027;-82
2023/07/18 05:03:38;;;;;;;9.07;6.78;;;29.50;56.60;;;;;;5114107;28;20454;-81
2023/07/18 05:06:04;;;;;;;8.65;6.05;;;29.60;56.70;;;;;;5095427;28;20104;-83
2023/07/18 05:08:30;;;;;;;8.50;6.65;;;29.60;56.90;;;;;;5113795;28;20040;-81
2023/07/18 05:11:01;;;;;;;7.32;5.88;;;29.60;56.70;;;;;;5094957;28;20088;-80
2023/07/18 05:13:27;;;;;;;8.18;5.75;;;29.50;56.70;;;;;;5111877;28;20040;-81
2023/07/18 05:15:53;;;;;;;8.05;6.22;;;29.60;56.90;;;;;;5112059;28;20535;-81
2023/07/18 05:18:19;;;;;;;9.73;6.45;;;29.50;57.10;;;;;;5113531;28;20110;-82
2023/07/18 05:20:45;;;;;;;6.70;5.85;;;29.50;57.30;;;;;;5111443;28;20149;-81
2023/07/18 05:23:11;;;;;;;8.50;6.00;;;29.50;57.50;;;;;;5113017;28;20064;-79
2023/07/18 05:25:37;;;;;;;10.02;6.97;;;29.60;58.30;;;;;;5112597;28;20559;-79
2023/07/18 05:28:03;;;;;;;10.18;7.63;;;29.70;58.30;;;;;;5111254;28;20077;-80
2023/07/18 05:30:29;;;;;;;10.32;7.13;;;29.60;58.60;;;;;;5112459;28;20043;-78
2023/07/18 05:32:55;;;;;;;11.38;7.20;;;29.80;58.70;;;;;;5112713;28;20030;-79
2023/07/18 05:35:22;;;;;;;7.75;6.40;;;29.70;60.50;;;;;;5112740;28;20020;-79
2023/07/18 05:37:48;;;;;;;9.60;6.88;;;29.80;59.70;;;;;;5111126;28;20039;-82
2023/07/18 05:40:14;;;;;;;8.38;6.82;;;29.90;59.70;;;;;;5111758;28;20045;-82
2023/07/18 05:42:42;;;;;;;8.75;6.22;;;30.00;61.10;;;;;;5112625;28;20032;-80
2023/07/18 05:45:09;;;;;;;10.32;6.43;;;29.80;58.90;;;;;;5112336;28;20484;-80
2023/07/18 05:47:38;;;;;;;8.98;7.47;;;29.90;58.60;;;;;;5112640;28;20088;-81
2023/07/18 05:50:05;;;;;;;11.45;8.50;;;29.90;58.80;;;;;;5112406;28;20531;-82
2023/07/18 05:52:31;;;;;;;9.90;8.90;;;30.00;59.20;;;;;;5111130;28;20039;-81
2023/07/18 05:54:57;;;;;;;8.07;6.07;;;30.10;60.40;;;;;;5112095;28;20032;-79
2023/07/18 05:57:24;;;;;;;7.88;5.88;;;30.00;59.00;;;;;;5111356;28;20373;-84
2023/07/18 05:59:50;;;;;;;7.43;5.47;;;30.10;58.50;;;;;;5112104;28;20059;-79
2023/07/18 06:02:16;;;;;;;11.50;6.90;;;30.00;58.00;;;;;;5112120;28;20059;-80
2023/07/18 06:04:43;;;;;;;7.47;6.18;;;30.10;58.40;;;;;;5112294;28;20032;-81
2023/07/18 06:07:09;;;;;;;8.38;5.72;;;29.90;57.30;;;;;;5110606;28;20043;-79
2023/07/18 06:09:35;;;;;;;7.38;5.45;;;30.10;59.20;;;;;;5111888;28;20043;-82
2023/07/18 06:12:02;;;;;;;6.70;5.35;;;30.10;59.60;;;;;;5111608;28;20046;-76
2023/07/18 06:14:29;;;;;;;7.22;6.53;;;30.10;57.50;;;;;;5109636;28;20038;-77
2023/07/18 06:16:54;;;;;;;7.63;5.35;;;29.90;56.70;;;;;;5107601;28;20032;-77
2023/07/18 06:19:21;;;;;;;8.63;6.53;;;30.00;57.70;;;;;;5091374;28;20093;-75
2023/07/18 06:21:48;;;;;;;6.60;5.65;;;29.90;57.00;;;;;;5100449;28;20446;-75
2023/07/18 06:24:15;;;;;;;6.97;5.88;;;29.80;58.90;;;;;;5111697;28;20032;-74
2023/07/18 06:26:44;;;;;;;6.57;5.60;;;29.90;57.60;;;;;;5111785;28;20028;-74
2023/07/18 06:29:10;;;;;;;9.50;6.03;;;29.90;57.30;;;;;;5111283;28;20032;-74
2023/07/18 06:31:37;;;;;;;9.10;5.40;;;29.90;57.00;;;;;;5088604;28;20458;-77
2023/07/18 06:34:03;;;;;;;6.80;6.10;;;30.00;57.60;;;;;;5088753;28;20044;-74
2023/07/18 06:36:29;;;;;;;6.35;4.55;;;29.90;56.80;;;;;;5088517;28;20085;-74
2023/07/18 06:38:55;;;;;;;6.57;4.70;;;29.90;56.80;;;;;;5088494;28;20036;-75
2023/07/18 06:41:21;;;;;;;8.05;4.60;;;29.90;56.70;;;;;;5088135;28;20047;-73
2023/07/18 06:43:48;;;;;;;6.53;4.97;;;29.90;56.60;;;;;;5088516;28;20036;-74
2023/07/18 06:46:14;;;;;;;4.93;4.38;;;29.90;56.50;;;;;;5071581;28;20486;-74
2023/07/18 06:48:39;;;;;;;7.53;4.40;;;30.00;57.10;;;;;;5108380;28;20062;-74
2023/07/18 06:51:06;;;;;;;5.68;5.03;;;30.00;57.20;;;;;;5110420;28;20062;-74
2023/07/18 06:53:33;;;;;;;5.40;4.90;;;29.80;56.60;;;;;;5113221;28;20051;-79
2023/07/18 06:55:59;;;;;;;5.10;4.60;;;30.00;57.20;;;;;;5113076;28;20113;-79
2023/07/18 06:58:25;;;;;;;4.88;4.47;;;30.00;57.30;;;;;;5113090;28;20048;-79
2023/07/18 07:00:52;;;;;;;6.45;4.70;;;30.10;57.00;;;;;;5112814;28;20130;-79
2023/07/18 07:03:18;;;;;;;6.82;4.75;;;29.90;56.10;;;;;;5092435;28;20035;-79
2023/07/18 07:05:44;;;;;;;5.45;4.85;;;29.90;55.90;;;;;;5115372;28;20030;-78
2023/07/18 07:08:10;;;;;;;5.55;4.50;;;29.90;55.80;;;;;;5115741;28;20051;-79
2023/07/18 07:10:37;;;;;;;6.00;4.78;;;30.00;56.40;;;;;;5115319;28;20040;-77
2023/07/18 07:13:04;;;;;;;14.13;5.50;;;29.90;55.90;;;;;;5115539;28;20032;-78
2023/07/18 07:15:32;;;;;;;5.78;4.82;;;29.80;55.90;;;;;;5115417;28;20387;-77
2023/07/18 07:17:59;;;;;;;5.65;5.10;;;30.00;56.40;;;;;;5115141;27;20453;-79
2023/07/18 07:20:25;;;;;;;8.68;5.38;;;29.80;55.90;;;;;;5115130;28;20091;-77
2023/07/18 07:22:52;;;;;;;6.53;5.15;;;30.00;56.50;;;;;;5094576;28;20474;-76
2023/07/18 07:25:19;;;;;;;7.50;5.13;;;29.90;55.40;;;;;;5094935;28;20031;-79
2023/07/18 07:27:46;;;;;;;7.85;4.78;;;29.90;55.10;;;;;;5094515;28;20119;-80
2023/07/18 07:30:15;;;;;;;9.15;5.07;;;29.90;55.10;;;;;;5093275;28;20524;-78
2023/07/18 07:32:45;;;;;;;5.32;4.82;;;29.90;54.80;;;;;;5094413;28;20476;-77
2023/07/18 07:35:11;;;;;;;8.25;5.57;;;29.70;54.60;;;;;;5094427;28;20039;-79
2023/07/18 07:37:40;;;;;;;5.97;5.35;;;29.80;54.10;;;;;;5094559;28;20069;-77
2023/07/18 07:40:11;;;;;;;5.75;4.55;;;29.80;53.50;;;;;;5094313;28;20042;-81
2023/07/18 07:42:41;;;;;;;5.32;4.25;;;29.70;52.80;;;;;;5094346;28;20020;-79
2023/07/18 07:45:08;;;;;;;7.80;4.70;;;29.80;52.50;;;;;;5094404;28;20032;-78
2023/07/18 07:47:34;;;;;;;6.43;5.57;;;29.80;52.20;;;;;;5094140;28;20131;-79
2023/07/18 07:50:05;;;;;;;4.97;4.47;;;29.90;52.00;;;;;;5094036;28;20043;-79
2023/07/18 07:52:31;;;;;;;4.70;4.25;;;29.80;51.60;;;;;;5093888;28;20097;-79
2023/07/18 07:54:57;;;;;;;5.60;5.10;;;29.90;51.60;;;;;;5094037;28;20040;-76
2023/07/18 07:57:24;;;;;;;4.40;4.00;;;29.60;51.60;;;;;;5093805;28;20101;-79
2023/07/18 07:59:51;;;;;;;5.10;4.22;;;29.60;51.20;;;;;;5093971;28;20452;-82
2023/07/18 08:02:20;;;;;;;7.47;5.30;;;29.80;50.90;;;;;;5093160;28;20032;-80
2023/07/18 08:04:47;;;;;;;7.25;5.82;;;29.80;50.50;;;;;;5108679;28;20044;-80
2023/07/18 08:07:14;;;;;;;5.35;4.43;;;29.60;50.30;;;;;;5093437;28;20028;-78
2023/07/18 08:09:40;;;;;;;5.95;4.68;;;29.70;50.00;;;;;;5093631;28;20043;-78
2023/07/18 08:12:07;;;;;;;5.53;4.78;;;29.60;49.70;;;;;;5093522;28;20040;-79
2023/07/18 08:14:34;;;;;;;7.25;6.55;;;29.60;49.30;;;;;;5093505;28;20024;-78
2023/07/18 08:17:02;;;;;;;12.10;6.13;;;29.70;48.90;;;;;;5093814;28;20512;-79
2023/07/18 08:19:28;;;;;;;6.10;4.45;;;29.70;48.60;;;;;;5093825;28;20702;-79
2023/07/18 08:21:54;;;;;;;6.93;5.25;;;29.70;48.40;;;;;;5104548;28;20036;-78
2023/07/18 08:24:20;;;;;;;9.00;5.85;;;29.60;48.30;;;;;;5114053;28;20036;-81
2023/07/18 08:26:46;;;;;;;4.35;3.95;;;29.70;48.00;;;;;;5113812;28;20040;-80
2023/07/18 08:29:12;;;;;;;5.00;4.22;;;29.70;47.70;;;;;;5113821;28;20168;-80
2023/07/18 08:31:38;;;;;;;4.43;4.00;;;29.70;47.50;;;;;;5113829;28;20139;-81
2023/07/18 08:34:04;;;;;;;4.57;4.00;;;29.60;47.20;;;;;;5112723;28;20543;-77
2023/07/18 08:36:31;;;;;;;6.07;3.50;;;29.60;47.00;;;;;;5113855;28;20076;-78
2023/07/18 08:38:57;;;;;;;5.10;4.40;;;29.60;47.00;;;;;;5090567;28;20427;-79
2023/07/18 08:41:23;;;;;;;4.28;3.40;;;29.60;47.00;;;;;;5090818;28;20040;-78
2023/07/18 08:43:49;;;;;;;4.30;3.85;;;29.70;47.00;;;;;;5090891;28;20132;-78
2023/07/18 08:46:19;;;;;;;7.68;4.30;;;29.60;47.20;;;;;;5090617;28;21329;-78
2023/07/18 08:48:54;;;;;;;3.55;3.25;;;29.60;47.40;;;;;;5090012;28;20511;-80
2023/07/18 08:51:21;;;;;;;3.72;3.40;;;29.60;48.00;;;;;;5090102;28;20510;-78
2023/07/18 08:53:47;;;;;;;5.22;3.85;;;29.60;48.00;;;;;;5073676;28;20044;-77
2023/07/18 08:56:14;;;;;;;2.33;2.03;;;29.50;48.20;;;;;;5090819;28;20050;-76
2023/07/18 08:58:40;;;;;;;6.88;5.13;;;29.60;49.70;;;;;;5090431;28;20035;-76
2023/07/18 09:01:08;;;;;;;8.80;4.95;;;29.60;50.60;;;;;;5090365;28;20084;-75
2023/07/18 09:03:35;;;;;;;6.80;6.13;;;29.70;51.70;;;;;;5090521;28;20040;-76
2023/07/18 09:06:15;;;;;;;7.28;5.50;;;29.60;52.80;;;;;;5090448;28;20098;-76
2023/07/18 09:08:44;;;;;;;8.82;5.72;;;29.60;52.30;;;;;;5073503;28;20044;-78
2023/07/18 09:11:14;;;;;;;9.32;5.35;;;29.60;51.70;;;;;;5090068;28;20051;-77
2023/07/18 09:13:43;;;;;;;8.10;6.50;;;29.60;51.60;;;;;;5089714;28;20075;-76
2023/07/18 09:16:13;;;;;;;5.90;5.30;;;29.60;51.50;;;;;;5098952;28;20099;-75
2023/07/18 09:18:55;;;;;;;7.80;5.35;;;29.60;51.40;;;;;;5112085;28;20038;-79
2023/07/18 09:21:22;;;;;;;5.90;4.97;;;29.60;51.40;;;;;;5112705;28;20548;-79
2023/07/18 09:23:50;;;;;;;7.60;6.13;;;29.70;51.40;;;;;;5112928;28;20040;-77
2023/07/18 09:26:22;;;;;;;7.10;5.40;;;29.70;52.40;;;;;;5112746;28;20050;-75
2023/07/18 09:28:48;;;;;;;7.47;5.13;;;29.70;52.10;;;;;;5112907;28;20104;-75
2023/07/18 09:31:26;;;;;;;6.03;5.45;;;29.90;52.10;;;;;;5112506;28;20035;-76
2023/07/18 09:33:54;;;;;;;6.57;4.93;;;29.90;52.10;;;;;;5111489;28;20027;-73
2023/07/18 09:36:21;;;;;;;5.32;4.82;;;29.90;52.40;;;;;;5112638;28;20039;-77
2023/07/18 09:38:48;;;;;;;7.35;5.72;;;30.00;55.50;;;;;;5112623;28;20062;-76
2023/07/18 09:41:19;;;;;;;8.23;4.68;;;30.10;56.90;;;;;;5112483;28;20034;-78
2023/07/18 09:43:45;;;;;;;10.93;6.57;;;30.10;55.40;;;;;;5111442;28;20137;-76
2023/07/18 09:46:18;;;;;;;6.47;5.32;;;30.20;53.90;;;;;;5068453;28;20407;-76
2023/07/18 09:48:45;;;;;;;6.70;5.97;;;30.20;55.20;;;;;;5068445;28;20020;-76
2023/07/18 09:51:20;;;;;;;6.95;6.30;;;30.20;53.90;;;;;;5068217;28;20200;-76
2023/07/18 09:53:47;;;;;;;8.65;5.97;;;30.10;53.90;;;;;;5068582;28;20033;-76
2023/07/18 09:56:17;;;;;;;6.05;5.53;;;30.10;54.10;;;;;;5067417;28;20106;-76
2023/07/18 09:58:46;;;;;;;8.88;6.63;;;30.20;55.00;;;;;;5068429;28;20477;-78
2023/07/18 10:01:13;;;;;;;8.05;6.03;;;30.10;53.90;;;;;;5067139;28;20086;-82
2023/07/18 10:03:40;;;;;;;7.05;5.85;;;30.00;54.80;;;;;;5068884;28;20032;-82
2023/07/18 10:06:11;;;;;;;11.07;6.47;;;30.10;54.50;;;;;;5068130;28;20044;-78
2023/07/18 10:08:41;;;;;;;3.95;2.05;;;30.10;54.50;;;;;;5068134;28;20025;-79
2023/07/18 10:11:08;;;;;;;6.45;4.22;;;30.20;56.60;;;;;;5067887;28;20025;-76
2023/07/18 10:13:41;;;;;;;6.32;4.93;;;30.30;57.30;;;;;;5067986;28;20515;-74
2023/07/18 10:16:13;;;;;;;6.63;5.45;;;30.30;57.90;;;;;;5066677;28;20115;-74
2023/07/18 10:18:47;;;;;;;9.48;6.40;;;30.40;55.30;;;;;;5067816;28;20043;-75
2023/07/18 10:21:35;;;;;;;6.50;5.75;;;30.20;54.90;;;;;;5067526;28;20114;-75
2023/07/18 10:24:31;;;;;;;7.18;6.30;;;30.20;54.70;;;;;;5048578;28;20071;-79
2023/07/18 10:27:00;;;;;;;6.10;5.43;;;30.00;54.50;;;;;;5009271;28;20084;-76
2023/07/18 10:29:31;;;;;;;8.02;6.32;;;30.30;57.10;;;;;;5024917;28;20042;-78
2023/07/18 10:32:02;;;;;;;10.27;6.15;;;30.30;56.20;;;;;;5025359;28;20041;-78
2023/07/18 10:34:28;;;;;;;9.63;5.90;;;30.40;56.00;;;;;;5025762;28;20041;-77
2023/07/18 10:37:04;;;;;;;9.10;5.68;;;30.30;55.80;;;;;;5025263;28;20430;-77
2023/07/18 10:39:43;;;;;;;5.95;5.35;;;30.20;55.70;;;;;;5025649;28;20111;-79
2023/07/18 10:42:25;;;;;;;9.05;6.60;;;30.20;56.00;;;;;;5025787;28;20125;-78
2023/07/18 10:45:00;;;;;;;7.15;5.63;;;30.30;59.20;;;;;;5024793;28;20512;-78
2023/07/18 10:47:27;;;;;;;6.15;5.55;;;30.60;56.90;;;;;;5025291;28;20489;-79
2023/07/18 10:49:54;;;;;;;7.07;4.57;;;30.50;56.00;;;;;;5025028;28;20520;-80
2023/07/18 10:52:21;;;;;;;7.30;5.68;;;30.40;55.60;;;;;;5025059;28;20041;-79
2023/07/18 10:54:55;;;;;;;8.35;4.90;;;30.30;55.40;;;;;;5024878;28;20114;-79
2023/07/18 10:57:29;;;;;;;5.47;4.95;;;30.30;55.00;;;;;;5013412;28;20048;-79
2023/07/18 10:59:56;;;;;;;8.82;5.88;;;30.30;54.80;;;;;;5011743;28;20054;-79
2023/07/18 11:02:22;;;;;;;7.00;4.85;;;30.40;54.80;;;;;;5011543;28;20140;-79
2023/07/18 11:04:51;;;;;;;6.28;4.72;;;30.30;54.80;;;;;;5051999;28;20136;-80
2023/07/18 11:07:17;;;;;;;6.25;5.53;;;30.20;54.70;;;;;;5052753;28;20065;-76
2023/07/18 11:09:44;;;;;;;6.20;5.10;;;30.20;54.70;;;;;;5053887;28;20459;-80
2023/07/18 11:12:19;;;;;;;7.10;5.05;;;30.20;54.70;;;;;;5053611;28;20036;-79
2023/07/18 11:14:46;;;;;;;8.57;5.60;;;30.20;54.70;;;;;;5053671;28;20025;-80
2023/07/18 11:17:13;;;;;;;6.10;5.38;;;30.20;54.70;;;;;;5052371;28;20037;-79
2023/07/18 11:19:40;;;;;;;9.10;5.97;;;30.20;54.70;;;;;;5053576;28;20025;-79
2023/07/18 11:22:07;;;;;;;5.32;4.82;;;30.20;54.60;;;;;;5066977;28;20674;-79
2023/07/18 11:24:34;;;;;;;8.45;4.63;;;30.40;54.70;;;;;;5073420;28;20040;-79
2023/07/18 11:27:19;;;;;;;9.15;4.75;;;30.30;54.70;;;;;;5070941;28;20045;-78
2023/07/18 11:30:06;;;;;;;9.10;5.20;;;30.30;54.70;;;;;;5070755;28;20041;-77
2023/07/18 11:32:37;;;;;;;5.35;4.72;;;30.30;54.80;;;;;;5070609;28;20032;-78
2023/07/18 11:35:06;;;;;;;5.15;4.57;;;30.20;54.70;;;;;;5053930;28;20032;-79
2023/07/18 11:37:33;;;;;;;5.50;4.55;;;30.20;54.40;;;;;;5052596;28;20047;-78
2023/07/18 11:40:00;;;;;;;5.30;4.43;;;30.00;53.90;;;;;;5050835;28;20419;-78
2023/07/18 11:42:48;;;;;;;4.72;4.05;;;30.20;53.70;;;;;;5050331;28;20052;-78
2023/07/18 11:45:18;;;;;;;5.10;4.60;;;30.10;53.30;;;;;;5050276;28;20053;-78
2023/07/18 11:47:47;;;;;;;7.35;5.90;;;30.10;52.90;;;;;;5050515;28;20068;-77
2023/07/18 11:50:14;;;;;;;4.53;3.67;;;30.00;52.60;;;;;;5050320;28;20044;-76
2023/07/18 11:52:43;;;;;;;5.00;4.50;;;30.00;52.30;;;;;;5050217;28;20041;-79
2023/07/18 11:55:09;;;;;;;7.90;5.53;;;30.20;51.90;;;;;;5050416;28;20048;-79
2023/07/18 11:57:35;;;;;;;5.30;4.63;;;30.10;51.40;;;;;;5050990;28;20195;-77
2023/07/18 12:00:02;;;;;;;7.18;5.90;;;30.00;51.20;;;;;;5034086;28;20049;-77
2023/07/18 12:02:28;;;;;;;5.53;4.97;;;30.00;50.80;;;;;;5052551;28;20068;-77
2023/07/18 12:04:55;;;;;;;4.93;4.40;;;30.00;50.60;;;;;;5052574;28;20033;-79
2023/07/18 12:07:21;;;;;;;6.65;4.10;;;30.00;50.20;;;;;;5051016;28;20041;-78
2023/07/18 12:09:47;;;;;;;5.25;4.32;;;30.00;49.90;;;;;;5052144;28;20044;-78
2023/07/18 12:12:13;;;;;;;5.38;3.60;;;29.90;49.00;;;;;;5052573;28;20182;-79
2023/07/18 12:14:41;;;;;;;4.93;4.43;;;30.00;49.30;;;;;;5052876;28;20039;-79
2023/07/18 12:17:07;;;;;;;4.07;3.78;;;29.90;48.50;;;;;;5051030;28;20112;-78
2023/07/18 12:19:33;;;;;;;5.00;4.38;;;29.90;48.20;;;;;;5052147;28;20452;-78
2023/07/18 12:21:59;;;;;;;4.72;3.83;;;29.90;48.00;;;;;;5062816;28;20051;-79
2023/07/18 12:24:25;;;;;;;5.45;4.28;;;29.90;47.70;;;;;;5070712;28;20036;-76
2023/07/18 12:26:51;;;;;;;4.68;3.78;;;29.80;47.40;;;;;;5072241;28;20028;-78
2023/07/18 12:29:18;;;;;;;5.80;3.40;;;29.90;47.30;;;;;;5072256;28;20052;-76
2023/07/18 12:31:49;;;;;;;3.63;2.60;;;29.80;47.10;;;;;;5072158;28;20519;-78
2023/07/18 12:34:16;;;;;;;4.57;4.00;;;29.80;47.00;;;;;;5072091;28;20037;-78
2023/07/18 12:36:43;;;;;;;3.67;3.30;;;29.90;47.10;;;;;;5061481;28;20029;-78
2023/07/18 12:39:09;;;;;;;4.10;3.55;;;29.80;46.30;;;;;;5052135;28;20032;-76
2023/07/18 12:41:35;;;;;;;3.50;3.20;;;29.70;46.10;;;;;;5052185;28;20021;-77
2023/07/18 12:44:01;;;;;;;4.05;3.67;;;29.70;45.90;;;;;;5051821;28;20116;-78
2023/07/18 12:46:27;;;;;;;4.45;3.45;;;29.60;45.80;;;;;;5050634;28;20057;-79
2023/07/18 12:48:54;;;;;;;4.88;3.20;;;29.60;46.90;;;;;;5050878;28;20068;-78